createdAt,value
2019-05-11T00:00:00.895Z,11.2
2019-05-11T00:05:00.897Z,10.9
2019-05-11T00:10:00.815Z,11.1
2019-05-11T00:15:00.842Z,10.5
2019-05-11T00:20:00.821Z,9.8
2019-05-11T00:25:00.814Z,9.2
2019-05-11T00:30:01.178Z,9.5
2019-05-11T00:35:00.941Z,9.4
2019-05-11T00:40:15.055Z,10.0
2019-05-11T00:45:00.884Z,10.0
2019-05-11T00:50:00.819Z,10.1
2019-05-11T00:55:01.064Z,10.4
2019-05-11T01:00:05.803Z,10.7
2019-05-11T01:05:00.836Z,11.1
2019-05-11T01:10:00.785Z,12.0
2019-05-11T01:15:00.794Z,11.8
2019-05-11T01:20:00.791Z,11.5
2019-05-11T01:25:00.955Z,10.9
2019-05-11T01:30:00.787Z,11.0
2019-05-11T01:40:00.859Z,11.2
2019-05-11T01:45:00.943Z,10.8
2019-05-11T01:55:00.866Z,10.2
2019-05-11T02:00:00.816Z,10.1
2019-05-11T02:05:00.844Z,9.6
2019-05-11T02:10:00.830Z,10.2
2019-05-11T02:15:00.935Z,10.9
2019-05-11T02:20:00.806Z,11.3
2019-05-11T02:25:00.871Z,11.4
2019-05-11T02:30:00.857Z,11.8
2019-05-11T02:35:00.940Z,11.7
2019-05-11T02:40:00.817Z,11.0
2019-05-11T02:45:00.945Z,11.3
2019-05-11T02:50:00.817Z,10.8
2019-05-11T02:55:00.888Z,10.8
2019-05-11T03:00:00.819Z,11.4
2019-05-11T03:05:00.887Z,11.4
2019-05-11T03:15:00.953Z,11.9
2019-05-11T03:20:00.831Z,11.4
2019-05-11T03:25:00.892Z,10.4
2019-05-11T03:30:02.571Z,10.4
2019-05-11T03:35:01.175Z,10.0
2019-05-11T03:40:00.828Z,9.1
2019-05-11T03:45:00.901Z,9.2
2019-05-11T03:55:00.961Z,8.8
2019-05-11T04:00:00.834Z,8.8
2019-05-11T04:05:02.051Z,9.4
2019-05-11T04:10:00.839Z,10.4
2019-05-11T04:15:00.904Z,10.8
2019-05-11T04:20:00.813Z,11.1
2019-05-11T04:25:00.841Z,10.3
2019-05-11T04:30:00.981Z,9.9
2019-05-11T04:35:00.919Z,8.9
2019-05-11T04:40:00.858Z,8.8
2019-05-11T04:45:00.913Z,9.1
2019-05-11T04:50:00.824Z,10.1
2019-05-11T04:55:01.088Z,11.1
2019-05-11T05:00:00.854Z,12.4
2019-05-11T05:05:00.981Z,12.8
2019-05-11T05:10:00.823Z,13.5
2019-05-11T05:15:00.923Z,14.1
2019-05-11T05:20:00.873Z,14.5
2019-05-11T05:25:00.993Z,14.8
2019-05-11T05:30:00.878Z,15.2
2019-05-11T05:35:00.927Z,15.8
2019-05-11T05:40:00.837Z,16.5
2019-05-11T05:45:00.939Z,16.2
2019-05-11T05:50:00.836Z,15.3
2019-05-11T05:55:00.999Z,14.7
2019-05-11T06:00:00.844Z,14.0
2019-05-11T06:05:00.942Z,13.1
2019-05-11T06:10:00.916Z,12.8
2019-05-11T06:20:00.886Z,13.4
2019-05-11T06:25:01.008Z,13.0
2019-05-11T06:30:00.881Z,12.4
2019-05-11T06:35:00.982Z,11.8
2019-05-11T06:40:00.884Z,10.8
2019-05-11T06:45:00.949Z,9.8
2019-05-11T06:50:00.882Z,9.4
2019-05-11T06:55:00.949Z,9.0
2019-05-11T07:00:00.855Z,8.3
2019-05-11T07:05:01.017Z,7.6
2019-05-11T07:10:00.888Z,7.2
2019-05-11T07:20:00.933Z,5.7
2019-05-11T07:25:00.965Z,5.7
2019-05-11T07:30:02.479Z,5.6
2019-05-11T07:35:01.026Z,5.0
2019-05-11T07:45:00.971Z,4.9
2019-05-11T07:50:00.884Z,4.3
2019-05-11T08:00:01.005Z,4.2
2019-05-11T08:05:01.795Z,4.4
2019-05-11T08:10:00.881Z,4.6
2019-05-11T08:15:13.152Z,5.1
2019-05-11T08:20:00.923Z,5.6
2019-05-11T08:25:00.983Z,6.1
2019-05-11T08:30:00.914Z,5.8
2019-05-11T08:40:00.980Z,5.6
2019-05-11T08:50:00.873Z,5.0
2019-05-11T08:55:00.989Z,5.2
2019-05-11T09:00:00.960Z,5.1
2019-05-11T09:05:01.056Z,5.3
2019-05-11T09:10:00.931Z,5.5
2019-05-11T09:15:01.056Z,5.2
2019-05-11T09:20:00.926Z,5.2
2019-05-11T09:25:01.003Z,5.0
2019-05-11T09:30:00.984Z,4.7
2019-05-11T09:35:00.995Z,4.5
2019-05-11T09:40:00.908Z,4.3
2019-05-11T09:45:01.004Z,4.2
2019-05-11T09:55:01.016Z,4.2
2019-05-11T10:00:01.009Z,4.2
2019-05-11T10:15:00.945Z,4.3
2019-05-11T10:20:00.950Z,4.3
2019-05-11T10:30:01.083Z,4.7
2019-05-11T10:35:01.017Z,5.1
2019-05-11T10:40:00.927Z,4.8
2019-05-11T10:45:01.085Z,4.9
2019-05-11T10:55:01.028Z,4.6
2019-05-11T11:00:00.959Z,4.2
2019-05-11T11:10:01.172Z,4.1
2019-05-11T11:15:01.090Z,4.2
2019-05-11T11:20:00.966Z,4.2
2019-05-11T11:25:01.035Z,4.2
2019-05-11T11:30:00.974Z,4.3
2019-05-11T11:45:01.113Z,4.4
2019-05-11T11:50:01.002Z,4.7
2019-05-11T11:55:01.004Z,4.5
2019-05-11T12:00:01.027Z,4.4
2019-05-11T12:05:01.128Z,4.7
2019-05-11T12:10:00.960Z,4.7
2019-05-11T12:15:01.118Z,4.6
2019-05-11T12:20:05.969Z,4.9
2019-05-11T12:25:01.057Z,5.4
2019-05-11T12:30:00.991Z,5.2
2019-05-11T12:35:01.054Z,5.3
2019-05-11T12:40:00.987Z,5.4
2019-05-11T12:45:01.060Z,5.4
2019-05-11T12:50:00.996Z,5.2
2019-05-11T12:55:01.186Z,5.2
2019-05-11T13:00:00.997Z,4.9
2019-05-11T13:05:01.062Z,4.9
2019-05-11T13:10:01.001Z,5.1
2019-05-11T13:15:01.074Z,4.9
2019-05-11T13:20:08.039Z,5.0
2019-05-11T13:25:01.192Z,5.2
2019-05-11T13:30:01.008Z,5.4
2019-05-11T13:35:01.082Z,5.2
2019-05-11T13:40:01.012Z,5.6
2019-05-11T13:45:01.020Z,5.5
2019-05-11T13:55:01.148Z,5.0
2019-05-11T14:05:01.084Z,4.8
2019-05-11T14:10:01.030Z,4.6
2019-05-11T14:15:01.058Z,4.6
2019-05-11T14:20:00.991Z,4.6
2019-05-11T14:25:01.125Z,4.4
2019-05-11T14:30:04.273Z,4.3
2019-05-11T14:35:01.057Z,4.2
2019-05-11T14:40:01.033Z,4.0
2019-05-11T14:45:08.727Z,4.0
2019-05-11T14:50:01.001Z,4.1
2019-05-11T15:00:01.116Z,3.9
2019-05-11T15:05:01.047Z,4.1
2019-05-11T15:10:01.041Z,4.1
2019-05-11T15:15:01.041Z,4.2
2019-05-11T15:25:01.050Z,4.4
2019-05-11T15:30:01.047Z,4.2
2019-05-11T15:40:01.127Z,4.2
2019-05-11T15:45:01.063Z,4.0
2019-05-11T15:50:01.022Z,3.8
2019-05-11T15:55:01.053Z,3.8
2019-05-11T16:00:01.060Z,3.6
2019-05-11T16:05:01.066Z,3.8
2019-05-11T16:10:01.152Z,3.9
2019-05-11T16:15:01.217Z,4.1
2019-05-11T16:20:01.099Z,4.1
2019-05-11T16:25:01.123Z,4.1
2019-05-11T16:30:01.061Z,3.9
2019-05-11T16:35:01.076Z,3.8
2019-05-11T16:40:01.068Z,3.6
2019-05-11T16:45:01.086Z,3.4
2019-05-11T16:55:01.076Z,3.2
2019-05-11T17:10:01.152Z,3.3
2019-05-11T17:15:01.076Z,3.0
2019-05-11T17:20:01.083Z,3.2
2019-05-11T17:25:01.157Z,3.1
2019-05-11T17:30:01.147Z,3.1
2019-05-11T17:35:01.220Z,3.2
2019-05-11T17:40:01.332Z,3.4
2019-05-11T17:45:01.091Z,3.2
2019-05-11T17:55:01.155Z,3.3
2019-05-11T18:00:02.563Z,2.9
2019-05-11T18:05:01.161Z,3.1
2019-05-11T18:15:01.287Z,3.1
2019-05-11T18:20:18.487Z,3.2
2019-05-11T18:25:01.163Z,3.4
2019-05-11T18:30:01.139Z,3.1
2019-05-11T18:40:01.170Z,3.1
2019-05-11T18:45:01.227Z,2.9
2019-05-11T18:50:02.050Z,3.2
2019-05-11T19:00:01.252Z,3.2
2019-05-11T19:05:01.172Z,3.2
2019-05-11T19:10:01.108Z,3.2
2019-05-11T19:15:01.237Z,2.9
2019-05-11T19:20:01.148Z,3.0
2019-05-11T19:25:01.244Z,3.2
2019-05-11T19:30:01.122Z,3.0
2019-05-11T19:35:01.193Z,3.0
2019-05-11T19:40:01.124Z,3.0
2019-05-11T19:45:01.284Z,3.1
2019-05-11T19:50:01.138Z,3.0
2019-05-11T19:55:01.122Z,4.4
2019-05-11T20:00:01.175Z,6.8
2019-05-11T20:05:01.206Z,7.6
2019-05-11T20:10:01.368Z,8.3
2019-05-11T20:15:01.264Z,8.8
2019-05-11T20:20:01.457Z,7.7
2019-05-11T20:25:01.209Z,5.7
2019-05-11T20:30:02.147Z,5.2
2019-05-11T20:35:01.204Z,4.7
2019-05-11T20:45:01.142Z,4.5
2019-05-11T20:50:01.145Z,4.5
2019-05-11T20:55:01.274Z,4.3
2019-05-11T21:00:01.135Z,4.5
2019-05-11T21:05:01.154Z,4.8
2019-05-11T21:10:01.149Z,4.8
2019-05-11T21:15:01.302Z,4.8
2019-05-11T21:25:01.238Z,4.8
2019-05-11T21:30:01.193Z,4.6
2019-05-11T21:35:01.411Z,4.4
2019-05-11T21:45:01.340Z,4.6
2019-05-11T21:50:02.357Z,4.4
2019-05-11T21:55:01.297Z,4.6
2019-05-11T22:00:09.132Z,4.6
2019-05-11T22:05:03.462Z,4.4
2019-05-11T22:10:01.173Z,4.3
2019-05-11T22:15:01.311Z,4.4
2019-05-11T22:25:01.307Z,4.8
2019-05-11T22:30:01.181Z,4.8
2019-05-11T22:35:01.194Z,4.7
2019-05-11T22:40:01.185Z,4.8
2019-05-11T22:45:08.848Z,4.6
2019-05-11T22:50:01.210Z,4.1
2019-05-11T22:55:01.313Z,4.3
2019-05-11T23:00:02.021Z,5.0
2019-05-11T23:05:01.256Z,5.4
2019-05-11T23:15:01.259Z,5.6
2019-05-11T23:20:01.170Z,5.5
2019-05-11T23:25:01.195Z,5.1
2019-05-11T23:30:01.203Z,4.5
2019-05-11T23:35:01.266Z,5.0
2019-05-11T23:40:01.205Z,5.3
2019-05-11T23:45:01.292Z,5.4
2019-05-11T23:55:01.342Z,5.6
